sensor_id;sensor_type;location;lat;lon;timestamp;P1;durP1;ratioP1;P2;durP2;ratioP2
4529;SDS011;2277;51.626;7.516;2022-12-19T00:01:26;12.73;;;8.30;;
4529;SDS011;2277;51.626;7.516;2022-12-19T00:03:57;13.10;;;10.77;;
4529;SDS011;2277;51.626;7.516;2022-12-19T00:06:24;13.07;;;10.10;;
4529;SDS011;2277;51.626;7.516;2022-12-19T00:08:51;10.83;;;7.93;;
4529;SDS011;2277;51.626;7.516;2022-12-19T00:11:18;14.50;;;8.40;;
4529;SDS011;2277;51.626;7.516;2022-12-19T00:13:46;12.33;;;9.47;;
4529;SDS011;2277;51.626;7.516;2022-12-19T00:16:16;9.07;;;8.13;;
4529;SDS011;2277;51.626;7.516;2022-12-19T00:18:44;12.67;;;11.40;;
4529;SDS011;2277;51.626;7.516;2022-12-19T00:21:11;13.03;;;8.37;;
4529;SDS011;2277;51.626;7.516;2022-12-19T00:23:41;19.20;;;8.83;;
4529;SDS011;2277;51.626;7.516;2022-12-19T00:26:08;13.10;;;7.13;;
4529;SDS011;2277;51.626;7.516;2022-12-19T00:28:38;10.07;;;9.27;;
4529;SDS011;2277;51.626;7.516;2022-12-19T00:31:05;10.07;;;8.10;;
4529;SDS011;2277;51.626;7.516;2022-12-19T00:33:32;17.47;;;10.43;;
4529;SDS011;2277;51.626;7.516;2022-12-19T00:35:58;11.03;;;9.10;;
4529;SDS011;2277;51.626;7.516;2022-12-19T00:38:25;13.57;;;8.33;;
4529;SDS011;2277;51.626;7.516;2022-12-19T00:40:51;28.37;;;11.57;;
4529;SDS011;2277;51.626;7.516;2022-12-19T00:43:17;14.90;;;8.13;;
4529;SDS011;2277;51.626;7.516;2022-12-19T00:45:42;11.07;;;9.77;;
4529;SDS011;2277;51.626;7.516;2022-12-19T00:48:08;12.50;;;11.10;;
4529;SDS011;2277;51.626;7.516;2022-12-19T00:50:33;13.03;;;10.37;;
4529;SDS011;2277;51.626;7.516;2022-12-19T00:52:59;14.40;;;9.93;;
4529;SDS011;2277;51.626;7.516;2022-12-19T00:55:24;10.07;;;6.70;;
4529;SDS011;2277;51.626;7.516;2022-12-19T00:57:50;11.40;;;10.30;;
4529;SDS011;2277;51.626;7.516;2022-12-19T01:00:16;15.20;;;8.40;;
4529;SDS011;2277;51.626;7.516;2022-12-19T01:02:42;14.93;;;9.90;;
4529;SDS011;2277;51.626;7.516;2022-12-19T01:05:08;10.10;;;7.97;;
4529;SDS011;2277;51.626;7.516;2022-12-19T01:07:35;7.47;;;6.90;;
4529;SDS011;2277;51.626;7.516;2022-12-19T01:10:01;13.23;;;9.63;;
4529;SDS011;2277;51.626;7.516;2022-12-19T01:12:27;10.87;;;9.87;;
4529;SDS011;2277;51.626;7.516;2022-12-19T01:15:11;9.20;;;8.07;;
4529;SDS011;2277;51.626;7.516;2022-12-19T01:17:42;18.53;;;11.67;;
4529;SDS011;2277;51.626;7.516;2022-12-19T01:20:08;12.87;;;9.80;;
4529;SDS011;2277;51.626;7.516;2022-12-19T01:22:34;10.00;;;8.30;;
4529;SDS011;2277;51.626;7.516;2022-12-19T01:25:00;16.70;;;10.40;;
4529;SDS011;2277;51.626;7.516;2022-12-19T01:27:25;11.53;;;8.00;;
4529;SDS011;2277;51.626;7.516;2022-12-19T01:29:51;12.37;;;8.70;;
4529;SDS011;2277;51.626;7.516;2022-12-19T01:32:16;15.17;;;10.37;;
4529;SDS011;2277;51.626;7.516;2022-12-19T01:34:42;10.90;;;9.47;;
4529;SDS011;2277;51.626;7.516;2022-12-19T01:37:07;17.67;;;11.83;;
4529;SDS011;2277;51.626;7.516;2022-12-19T01:39:33;13.13;;;11.83;;
4529;SDS011;2277;51.626;7.516;2022-12-19T01:41:58;10.60;;;9.50;;
4529;SDS011;2277;51.626;7.516;2022-12-19T01:44:24;11.27;;;10.23;;
4529;SDS011;2277;51.626;7.516;2022-12-19T01:46:51;15.07;;;11.07;;
4529;SDS011;2277;51.626;7.516;2022-12-19T01:51:52;16.83;;;12.07;;
4529;SDS011;2277;51.626;7.516;2022-12-19T01:54:24;12.73;;;10.03;;
4529;SDS011;2277;51.626;7.516;2022-12-19T01:56:57;17.80;;;9.13;;
4529;SDS011;2277;51.626;7.516;2022-12-19T01:59:26;13.03;;;10.83;;
4529;SDS011;2277;51.626;7.516;2022-12-19T02:02:44;17.40;;;10.60;;
4529;SDS011;2277;51.626;7.516;2022-12-19T02:04:44;15.43;;;8.93;;
4529;SDS011;2277;51.626;7.516;2022-12-19T02:07:11;11.57;;;8.37;;
4529;SDS011;2277;51.626;7.516;2022-12-19T02:09:39;17.50;;;11.97;;
4529;SDS011;2277;51.626;7.516;2022-12-19T02:12:06;12.13;;;10.53;;
4529;SDS011;2277;51.626;7.516;2022-12-19T02:14:32;12.57;;;9.53;;
4529;SDS011;2277;51.626;7.516;2022-12-19T02:17:03;16.20;;;9.17;;
4529;SDS011;2277;51.626;7.516;2022-12-19T02:22:35;9.90;;;8.90;;
4529;SDS011;2277;51.626;7.516;2022-12-19T02:25:31;9.37;;;8.17;;
4529;SDS011;2277;51.626;7.516;2022-12-19T02:28:18;12.00;;;9.27;;
4529;SDS011;2277;51.626;7.516;2022-12-19T02:34:07;8.57;;;6.33;;
4529;SDS011;2277;51.626;7.516;2022-12-19T02:36:57;11.20;;;8.10;;
4529;SDS011;2277;51.626;7.516;2022-12-19T02:39:33;8.67;;;7.10;;
4529;SDS011;2277;51.626;7.516;2022-12-19T02:42:02;15.53;;;8.73;;
4529;SDS011;2277;51.626;7.516;2022-12-19T02:44:42;8.87;;;8.00;;
4529;SDS011;2277;51.626;7.516;2022-12-19T02:47:11;15.80;;;10.10;;
4529;SDS011;2277;51.626;7.516;2022-12-19T02:49:38;16.53;;;10.80;;
4529;SDS011;2277;51.626;7.516;2022-12-19T02:54:45;10.43;;;7.80;;
4529;SDS011;2277;51.626;7.516;2022-12-19T03:00:17;7.73;;;7.00;;
4529;SDS011;2277;51.626;7.516;2022-12-19T03:02:58;12.53;;;7.53;;
4529;SDS011;2277;51.626;7.516;2022-12-19T03:08:36;11.50;;;8.30;;
4529;SDS011;2277;51.626;7.516;2022-12-19T03:11:12;8.50;;;7.80;;
4529;SDS011;2277;51.626;7.516;2022-12-19T03:16:30;10.37;;;9.27;;
4529;SDS011;2277;51.626;7.516;2022-12-19T03:18:58;12.47;;;9.47;;
4529;SDS011;2277;51.626;7.516;2022-12-19T03:21:31;17.33;;;7.40;;
4529;SDS011;2277;51.626;7.516;2022-12-19T03:24:01;13.93;;;10.00;;
4529;SDS011;2277;51.626;7.516;2022-12-19T03:26:36;15.07;;;7.40;;
4529;SDS011;2277;51.626;7.516;2022-12-19T03:31:52;19.60;;;12.47;;
4529;SDS011;2277;51.626;7.516;2022-12-19T03:34:24;8.63;;;7.73;;
4529;SDS011;2277;51.626;7.516;2022-12-19T03:36:57;11.63;;;8.50;;
4529;SDS011;2277;51.626;7.516;2022-12-19T03:39:27;11.00;;;8.33;;
4529;SDS011;2277;51.626;7.516;2022-12-19T03:41:55;12.20;;;9.57;;
4529;SDS011;2277;51.626;7.516;2022-12-19T03:44:41;8.70;;;7.10;;
4529;SDS011;2277;51.626;7.516;2022-12-19T03:47:17;16.00;;;13.40;;
4529;SDS011;2277;51.626;7.516;2022-12-19T03:49:47;6.57;;;5.83;;
4529;SDS011;2277;51.626;7.516;2022-12-19T03:52:33;8.30;;;7.27;;
4529;SDS011;2277;51.626;7.516;2022-12-19T03:55:03;10.93;;;6.33;;
4529;SDS011;2277;51.626;7.516;2022-12-19T03:57:45;7.50;;;5.90;;
4529;SDS011;2277;51.626;7.516;2022-12-19T04:00:33;11.40;;;9.73;;
4529;SDS011;2277;51.626;7.516;2022-12-19T04:03:01;11.03;;;8.50;;
4529;SDS011;2277;51.626;7.516;2022-12-19T04:05:29;12.13;;;8.27;;
4529;SDS011;2277;51.626;7.516;2022-12-19T04:08:00;11.80;;;10.40;;
4529;SDS011;2277;51.626;7.516;2022-12-19T04:10:28;10.33;;;9.43;;
4529;SDS011;2277;51.626;7.516;2022-12-19T04:16:13;10.03;;;8.00;;
4529;SDS011;2277;51.626;7.516;2022-12-19T04:18:18;8.20;;;6.83;;
4529;SDS011;2277;51.626;7.516;2022-12-19T04:20:47;19.83;;;10.00;;
4529;SDS011;2277;51.626;7.516;2022-12-19T04:23:22;10.70;;;7.33;;
4529;SDS011;2277;51.626;7.516;2022-12-19T04:26:02;12.37;;;7.97;;
4529;SDS011;2277;51.626;7.516;2022-12-19T04:28:31;6.93;;;6.30;;
4529;SDS011;2277;51.626;7.516;2022-12-19T04:31:03;11.40;;;7.67;;
4529;SDS011;2277;51.626;7.516;2022-12-19T04:33:30;12.80;;;9.13;;
4529;SDS011;2277;51.626;7.516;2022-12-19T04:35:56;10.13;;;7.33;;
4529;SDS011;2277;51.626;7.516;2022-12-19T04:38:21;13.23;;;9.00;;
4529;SDS011;2277;51.626;7.516;2022-12-19T04:40:47;14.13;;;8.53;;
4529;SDS011;2277;51.626;7.516;2022-12-19T04:43:13;11.57;;;8.47;;
4529;SDS011;2277;51.626;7.516;2022-12-19T04:45:41;8.40;;;7.57;;
4529;SDS011;2277;51.626;7.516;2022-12-19T04:48:07;7.53;;;6.83;;
4529;SDS011;2277;51.626;7.516;2022-12-19T04:50:33;10.63;;;9.40;;
4529;SDS011;2277;51.626;7.516;2022-12-19T04:52:59;8.93;;;8.13;;
4529;SDS011;2277;51.626;7.516;2022-12-19T04:55:25;12.47;;;10.20;;
4529;SDS011;2277;51.626;7.516;2022-12-19T04:57:51;10.90;;;8.83;;
4529;SDS011;2277;51.626;7.516;2022-12-19T05:00:16;8.50;;;7.00;;
4529;SDS011;2277;51.626;7.516;2022-12-19T05:02:42;17.40;;;10.20;;
4529;SDS011;2277;51.626;7.516;2022-12-19T05:05:08;9.50;;;8.60;;
4529;SDS011;2277;51.626;7.516;2022-12-19T05:07:34;10.00;;;9.00;;
4529;SDS011;2277;51.626;7.516;2022-12-19T05:09:59;12.67;;;10.10;;
4529;SDS011;2277;51.626;7.516;2022-12-19T05:12:25;14.87;;;8.13;;
4529;SDS011;2277;51.626;7.516;2022-12-19T05:14:52;12.73;;;10.20;;
4529;SDS011;2277;51.626;7.516;2022-12-19T05:17:18;15.43;;;8.70;;
4529;SDS011;2277;51.626;7.516;2022-12-19T05:19:43;8.67;;;7.73;;
4529;SDS011;2277;51.626;7.516;2022-12-19T05:22:09;9.50;;;8.63;;
4529;SDS011;2277;51.626;7.516;2022-12-19T05:24:35;10.00;;;9.10;;
4529;SDS011;2277;51.626;7.516;2022-12-19T05:27:00;10.63;;;7.47;;
4529;SDS011;2277;51.626;7.516;2022-12-19T05:29:26;7.83;;;6.40;;
4529;SDS011;2277;51.626;7.516;2022-12-19T05:31:51;12.40;;;8.37;;
4529;SDS011;2277;51.626;7.516;2022-12-19T05:34:17;15.00;;;11.83;;
4529;SDS011;2277;51.626;7.516;2022-12-19T05:36:42;11.07;;;10.07;;
4529;SDS011;2277;51.626;7.516;2022-12-19T05:39:08;10.40;;;9.20;;
4529;SDS011;2277;51.626;7.516;2022-12-19T05:41:34;9.00;;;7.57;;
4529;SDS011;2277;51.626;7.516;2022-12-19T05:43:59;8.87;;;6.83;;
4529;SDS011;2277;51.626;7.516;2022-12-19T05:46:25;9.33;;;6.23;;
4529;SDS011;2277;51.626;7.516;2022-12-19T05:48:51;8.57;;;7.83;;
4529;SDS011;2277;51.626;7.516;2022-12-19T05:51:17;8.50;;;7.80;;
4529;SDS011;2277;51.626;7.516;2022-12-19T05:53:42;13.00;;;7.63;;
4529;SDS011;2277;51.626;7.516;2022-12-19T05:56:13;10.03;;;8.90;;
4529;SDS011;2277;51.626;7.516;2022-12-19T05:58:40;7.90;;;7.17;;
4529;SDS011;2277;51.626;7.516;2022-12-19T06:03:33;7.30;;;6.60;;
4529;SDS011;2277;51.626;7.516;2022-12-19T06:06:02;12.53;;;9.90;;
4529;SDS011;2277;51.626;7.516;2022-12-19T06:08:33;8.00;;;7.40;;
4529;SDS011;2277;51.626;7.516;2022-12-19T06:10:59;11.40;;;6.60;;
4529;SDS011;2277;51.626;7.516;2022-12-19T06:13:27;9.80;;;8.03;;
4529;SDS011;2277;51.626;7.516;2022-12-19T06:16:00;9.30;;;8.50;;
4529;SDS011;2277;51.626;7.516;2022-12-19T06:18:34;7.33;;;6.23;;
4529;SDS011;2277;51.626;7.516;2022-12-19T06:21:01;9.80;;;7.27;;
4529;SDS011;2277;51.626;7.516;2022-12-19T06:23:29;10.80;;;9.90;;
4529;SDS011;2277;51.626;7.516;2022-12-19T06:25:56;10.53;;;8.13;;
4529;SDS011;2277;51.626;7.516;2022-12-19T06:28:23;12.53;;;8.80;;
4529;SDS011;2277;51.626;7.516;2022-12-19T06:30:50;12.33;;;7.70;;
4529;SDS011;2277;51.626;7.516;2022-12-19T06:33:15;8.17;;;7.47;;
4529;SDS011;2277;51.626;7.516;2022-12-19T06:35:41;11.00;;;7.60;;
4529;SDS011;2277;51.626;7.516;2022-12-19T06:38:06;7.40;;;6.57;;
4529;SDS011;2277;51.626;7.516;2022-12-19T06:40:32;6.73;;;6.00;;
4529;SDS011;2277;51.626;7.516;2022-12-19T06:43:16;7.07;;;6.37;;
4529;SDS011;2277;51.626;7.516;2022-12-19T06:45:42;12.43;;;5.30;;
4529;SDS011;2277;51.626;7.516;2022-12-19T06:48:07;5.97;;;5.37;;
4529;SDS011;2277;51.626;7.516;2022-12-19T06:50:33;4.93;;;4.43;;
4529;SDS011;2277;51.626;7.516;2022-12-19T06:52:59;7.70;;;6.33;;
4529;SDS011;2277;51.626;7.516;2022-12-19T06:55:25;9.20;;;7.37;;
4529;SDS011;2277;51.626;7.516;2022-12-19T06:57:51;8.80;;;4.47;;
4529;SDS011;2277;51.626;7.516;2022-12-19T07:00:17;8.47;;;7.83;;
4529;SDS011;2277;51.626;7.516;2022-12-19T07:02:43;7.57;;;6.87;;
4529;SDS011;2277;51.626;7.516;2022-12-19T07:05:12;8.23;;;7.43;;
4529;SDS011;2277;51.626;7.516;2022-12-19T07:07:38;7.90;;;6.50;;
4529;SDS011;2277;51.626;7.516;2022-12-19T07:10:05;9.10;;;6.17;;
4529;SDS011;2277;51.626;7.516;2022-12-19T07:12:31;9.70;;;8.87;;
4529;SDS011;2277;51.626;7.516;2022-12-19T07:14:57;9.27;;;7.77;;
4529;SDS011;2277;51.626;7.516;2022-12-19T07:17:23;10.37;;;6.77;;
4529;SDS011;2277;51.626;7.516;2022-12-19T07:19:50;7.70;;;6.90;;
4529;SDS011;2277;51.626;7.516;2022-12-19T07:22:18;7.57;;;6.87;;
4529;SDS011;2277;51.626;7.516;2022-12-19T07:24:44;8.30;;;7.70;;
4529;SDS011;2277;51.626;7.516;2022-12-19T07:27:10;9.20;;;8.40;;
4529;SDS011;2277;51.626;7.516;2022-12-19T07:29:36;11.50;;;6.17;;
4529;SDS011;2277;51.626;7.516;2022-12-19T07:32:02;8.27;;;7.47;;
4529;SDS011;2277;51.626;7.516;2022-12-19T07:34:27;6.83;;;6.13;;
4529;SDS011;2277;51.626;7.516;2022-12-19T07:36:54;5.47;;;4.50;;
4529;SDS011;2277;51.626;7.516;2022-12-19T07:39:19;9.80;;;5.30;;
4529;SDS011;2277;51.626;7.516;2022-12-19T07:41:45;5.20;;;4.73;;
4529;SDS011;2277;51.626;7.516;2022-12-19T07:44:11;6.70;;;5.50;;
4529;SDS011;2277;51.626;7.516;2022-12-19T07:46:37;6.80;;;5.40;;
4529;SDS011;2277;51.626;7.516;2022-12-19T07:49:03;5.80;;;4.90;;
4529;SDS011;2277;51.626;7.516;2022-12-19T07:51:28;8.80;;;6.13;;
4529;SDS011;2277;51.626;7.516;2022-12-19T07:53:54;5.93;;;5.33;;
4529;SDS011;2277;51.626;7.516;2022-12-19T07:56:19;9.73;;;7.03;;
4529;SDS011;2277;51.626;7.516;2022-12-19T07:58:45;13.03;;;6.63;;
4529;SDS011;2277;51.626;7.516;2022-12-19T08:01:11;9.03;;;6.20;;
4529;SDS011;2277;51.626;7.516;2022-12-19T08:03:36;10.07;;;6.83;;
4529;SDS011;2277;51.626;7.516;2022-12-19T08:06:03;11.20;;;8.23;;
4529;SDS011;2277;51.626;7.516;2022-12-19T08:08:30;6.03;;;5.53;;
4529;SDS011;2277;51.626;7.516;2022-12-19T08:11:06;7.43;;;5.30;;
4529;SDS011;2277;51.626;7.516;2022-12-19T08:13:37;6.80;;;6.30;;
4529;SDS011;2277;51.626;7.516;2022-12-19T08:16:03;6.50;;;5.90;;
4529;SDS011;2277;51.626;7.516;2022-12-19T08:18:29;8.20;;;5.33;;
4529;SDS011;2277;51.626;7.516;2022-12-19T08:20:55;9.53;;;8.93;;
4529;SDS011;2277;51.626;7.516;2022-12-19T08:23:21;11.23;;;7.97;;
4529;SDS011;2277;51.626;7.516;2022-12-19T08:25:47;15.27;;;6.50;;
4529;SDS011;2277;51.626;7.516;2022-12-19T08:28:12;9.70;;;4.70;;
4529;SDS011;2277;51.626;7.516;2022-12-19T08:30:38;9.17;;;4.90;;
4529;SDS011;2277;51.626;7.516;2022-12-19T08:33:04;6.67;;;5.77;;
4529;SDS011;2277;51.626;7.516;2022-12-19T08:35:31;5.90;;;5.30;;
4529;SDS011;2277;51.626;7.516;2022-12-19T08:37:56;9.27;;;8.30;;
4529;SDS011;2277;51.626;7.516;2022-12-19T08:40:22;7.27;;;6.63;;
4529;SDS011;2277;51.626;7.516;2022-12-19T08:42:48;8.23;;;6.70;;
4529;SDS011;2277;51.626;7.516;2022-12-19T08:45:15;7.23;;;5.20;;
4529;SDS011;2277;51.626;7.516;2022-12-19T08:47:42;9.27;;;7.00;;
4529;SDS011;2277;51.626;7.516;2022-12-19T08:50:08;11.00;;;7.23;;
4529;SDS011;2277;51.626;7.516;2022-12-19T08:52:34;7.77;;;6.83;;
4529;SDS011;2277;51.626;7.516;2022-12-19T08:55:00;5.87;;;5.47;;
4529;SDS011;2277;51.626;7.516;2022-12-19T08:57:26;16.47;;;7.70;;
4529;SDS011;2277;51.626;7.516;2022-12-19T08:59:52;6.63;;;6.03;;
4529;SDS011;2277;51.626;7.516;2022-12-19T09:02:17;9.30;;;6.73;;
4529;SDS011;2277;51.626;7.516;2022-12-19T09:04:43;6.13;;;5.63;;
4529;SDS011;2277;51.626;7.516;2022-12-19T09:07:08;13.20;;;8.17;;
4529;SDS011;2277;51.626;7.516;2022-12-19T09:09:34;5.87;;;4.70;;
4529;SDS011;2277;51.626;7.516;2022-12-19T09:12:00;5.73;;;5.23;;
4529;SDS011;2277;51.626;7.516;2022-12-19T09:14:25;8.43;;;5.93;;
4529;SDS011;2277;51.626;7.516;2022-12-19T09:16:51;8.13;;;7.20;;
4529;SDS011;2277;51.626;7.516;2022-12-19T09:19:16;6.53;;;5.93;;
4529;SDS011;2277;51.626;7.516;2022-12-19T09:21:42;8.50;;;5.97;;
4529;SDS011;2277;51.626;7.516;2022-12-19T09:24:09;7.13;;;5.17;;
4529;SDS011;2277;51.626;7.516;2022-12-19T09:26:35;8.73;;;5.50;;
4529;SDS011;2277;51.626;7.516;2022-12-19T09:29:03;12.87;;;10.67;;
4529;SDS011;2277;51.626;7.516;2022-12-19T09:31:29;14.77;;;7.40;;
4529;SDS011;2277;51.626;7.516;2022-12-19T09:33:55;11.13;;;7.50;;
4529;SDS011;2277;51.626;7.516;2022-12-19T09:36:22;7.87;;;5.47;;
4529;SDS011;2277;51.626;7.516;2022-12-19T09:38:49;11.80;;;5.90;;
4529;SDS011;2277;51.626;7.516;2022-12-19T09:41:22;13.47;;;5.60;;
4529;SDS011;2277;51.626;7.516;2022-12-19T09:44:21;16.40;;;7.03;;
4529;SDS011;2277;51.626;7.516;2022-12-19T09:46:57;8.50;;;5.63;;
4529;SDS011;2277;51.626;7.516;2022-12-19T09:49:39;5.20;;;4.83;;
4529;SDS011;2277;51.626;7.516;2022-12-19T09:54:48;5.83;;;3.80;;
4529;SDS011;2277;51.626;7.516;2022-12-19T10:00:17;5.63;;;5.13;;
4529;SDS011;2277;51.626;7.516;2022-12-19T10:02:49;9.27;;;5.40;;
4529;SDS011;2277;51.626;7.516;2022-12-19T10:07:50;7.00;;;6.30;;
4529;SDS011;2277;51.626;7.516;2022-12-19T10:10:16;6.23;;;5.67;;
4529;SDS011;2277;51.626;7.516;2022-12-19T10:16:02;12.07;;;6.83;;
4529;SDS011;2277;51.626;7.516;2022-12-19T10:18:55;7.00;;;5.70;;
4529;SDS011;2277;51.626;7.516;2022-12-19T10:21:28;5.13;;;4.73;;
4529;SDS011;2277;51.626;7.516;2022-12-19T10:26:52;7.33;;;5.10;;
4529;SDS011;2277;51.626;7.516;2022-12-19T10:32:00;5.77;;;5.27;;
4529;SDS011;2277;51.626;7.516;2022-12-19T10:34:39;10.80;;;7.00;;
4529;SDS011;2277;51.626;7.516;2022-12-19T10:37:26;8.43;;;7.40;;
4529;SDS011;2277;51.626;7.516;2022-12-19T10:40:05;7.10;;;6.20;;
4529;SDS011;2277;51.626;7.516;2022-12-19T10:43:10;8.40;;;6.40;;
4529;SDS011;2277;51.626;7.516;2022-12-19T10:45:50;5.50;;;4.60;;
4529;SDS011;2277;51.626;7.516;2022-12-19T10:48:21;5.67;;;5.17;;
4529;SDS011;2277;51.626;7.516;2022-12-19T10:50:48;13.37;;;7.07;;
4529;SDS011;2277;51.626;7.516;2022-12-19T10:53:15;6.20;;;4.60;;
4529;SDS011;2277;51.626;7.516;2022-12-19T10:55:50;6.93;;;6.43;;
4529;SDS011;2277;51.626;7.516;2022-12-19T11:01:01;7.53;;;6.30;;
4529;SDS011;2277;51.626;7.516;2022-12-19T11:03:34;4.00;;;3.70;;
4529;SDS011;2277;51.626;7.516;2022-12-19T11:06:01;6.17;;;5.47;;
4529;SDS011;2277;51.626;7.516;2022-12-19T11:08:36;4.83;;;4.43;;
4529;SDS011;2277;51.626;7.516;2022-12-19T11:16:04;10.93;;;5.07;;
4529;SDS011;2277;51.626;7.516;2022-12-19T11:18:38;7.23;;;4.67;;
4529;SDS011;2277;51.626;7.516;2022-12-19T11:21:06;6.17;;;4.23;;
4529;SDS011;2277;51.626;7.516;2022-12-19T11:24:16;5.23;;;4.50;;
4529;SDS011;2277;51.626;7.516;2022-12-19T11:29:16;9.90;;;5.60;;
4529;SDS011;2277;51.626;7.516;2022-12-19T11:32:01;7.03;;;5.43;;
4529;SDS011;2277;51.626;7.516;2022-12-19T11:34:28;4.10;;;3.60;;
4529;SDS011;2277;51.626;7.516;2022-12-19T11:37:08;5.20;;;4.10;;
4529;SDS011;2277;51.626;7.516;2022-12-19T11:39:44;11.83;;;5.20;;
4529;SDS011;2277;51.626;7.516;2022-12-19T11:42:43;5.50;;;4.97;;
4529;SDS011;2277;51.626;7.516;2022-12-19T11:45:28;7.57;;;4.50;;
4529;SDS011;2277;51.626;7.516;2022-12-19T11:51:22;5.43;;;4.53;;
4529;SDS011;2277;51.626;7.516;2022-12-19T11:53:29;6.03;;;5.47;;
4529;SDS011;2277;51.626;7.516;2022-12-19T11:56:07;5.60;;;3.93;;
4529;SDS011;2277;51.626;7.516;2022-12-19T11:58:36;6.23;;;5.77;;
4529;SDS011;2277;51.626;7.516;2022-12-19T12:03:58;4.90;;;3.30;;
4529;SDS011;2277;51.626;7.516;2022-12-19T12:06:49;5.63;;;5.13;;
4529;SDS011;2277;51.626;7.516;2022-12-19T12:09:31;5.53;;;4.83;;
4529;SDS011;2277;51.626;7.516;2022-12-19T12:12:21;3.73;;;3.40;;
4529;SDS011;2277;51.626;7.516;2022-12-19T12:17:39;4.87;;;4.47;;
4529;SDS011;2277;51.626;7.516;2022-12-19T12:20:53;4.60;;;4.20;;
4529;SDS011;2277;51.626;7.516;2022-12-19T12:23:40;4.00;;;3.50;;
4529;SDS011;2277;51.626;7.516;2022-12-19T12:26:25;6.20;;;5.70;;
4529;SDS011;2277;51.626;7.516;2022-12-19T12:29:06;8.63;;;4.57;;
4529;SDS011;2277;51.626;7.516;2022-12-19T12:40:01;6.20;;;5.70;;
4529;SDS011;2277;51.626;7.516;2022-12-19T12:45:26;5.57;;;5.00;;
4529;SDS011;2277;51.626;7.516;2022-12-19T12:48:25;4.77;;;3.80;;
4529;SDS011;2277;51.626;7.516;2022-12-19T12:51:11;5.97;;;5.37;;
4529;SDS011;2277;51.626;7.516;2022-12-19T12:53:38;4.57;;;4.13;;
4529;SDS011;2277;51.626;7.516;2022-12-19T12:56:08;3.50;;;2.73;;
4529;SDS011;2277;51.626;7.516;2022-12-19T12:58:43;6.00;;;5.50;;
4529;SDS011;2277;51.626;7.516;2022-12-19T13:01:16;7.40;;;4.97;;
4529;SDS011;2277;51.626;7.516;2022-12-19T13:11:37;3.13;;;2.90;;
4529;SDS011;2277;51.626;7.516;2022-12-19T13:14:42;4.30;;;3.90;;
4529;SDS011;2277;51.626;7.516;2022-12-19T13:19:57;3.73;;;3.43;;
4529;SDS011;2277;51.626;7.516;2022-12-19T13:22:43;5.37;;;4.87;;
4529;SDS011;2277;51.626;7.516;2022-12-19T13:28:36;4.27;;;2.83;;
4529;SDS011;2277;51.626;7.516;2022-12-19T13:33:43;3.17;;;2.87;;
4529;SDS011;2277;51.626;7.516;2022-12-19T13:42:04;5.47;;;4.97;;
4529;SDS011;2277;51.626;7.516;2022-12-19T13:44:58;4.20;;;2.60;;
4529;SDS011;2277;51.626;7.516;2022-12-19T13:47:41;4.33;;;3.13;;
4529;SDS011;2277;51.626;7.516;2022-12-19T13:50:20;6.43;;;4.50;;
4529;SDS011;2277;51.626;7.516;2022-12-19T13:52:53;4.70;;;2.80;;
4529;SDS011;2277;51.626;7.516;2022-12-19T13:55:19;4.90;;;4.47;;
4529;SDS011;2277;51.626;7.516;2022-12-19T13:57:50;5.87;;;4.77;;
4529;SDS011;2277;51.626;7.516;2022-12-19T14:00:19;5.60;;;5.20;;
4529;SDS011;2277;51.626;7.516;2022-12-19T14:02:51;5.20;;;4.73;;
4529;SDS011;2277;51.626;7.516;2022-12-19T14:05:37;10.60;;;7.23;;
4529;SDS011;2277;51.626;7.516;2022-12-19T14:08:04;8.20;;;5.03;;
4529;SDS011;2277;51.626;7.516;2022-12-19T14:10:32;5.00;;;4.60;;
4529;SDS011;2277;51.626;7.516;2022-12-19T14:12:59;5.93;;;5.13;;
4529;SDS011;2277;51.626;7.516;2022-12-19T14:15:47;5.77;;;5.27;;
4529;SDS011;2277;51.626;7.516;2022-12-19T14:18:17;4.17;;;3.77;;
4529;SDS011;2277;51.626;7.516;2022-12-19T14:20:45;5.10;;;4.30;;
4529;SDS011;2277;51.626;7.516;2022-12-19T14:23:12;4.87;;;4.53;;
4529;SDS011;2277;51.626;7.516;2022-12-19T14:25:39;4.90;;;4.50;;
4529;SDS011;2277;51.626;7.516;2022-12-19T14:28:06;3.30;;;3.00;;
4529;SDS011;2277;51.626;7.516;2022-12-19T14:30:37;3.73;;;3.43;;
4529;SDS011;2277;51.626;7.516;2022-12-19T14:33:07;4.73;;;3.93;;
4529;SDS011;2277;51.626;7.516;2022-12-19T14:35:41;5.13;;;4.73;;
4529;SDS011;2277;51.626;7.516;2022-12-19T14:38:11;4.33;;;2.90;;
4529;SDS011;2277;51.626;7.516;2022-12-19T14:40:41;3.73;;;3.43;;
4529;SDS011;2277;51.626;7.516;2022-12-19T14:43:10;2.93;;;2.60;;
4529;SDS011;2277;51.626;7.516;2022-12-19T14:51:19;3.17;;;2.87;;
4529;SDS011;2277;51.626;7.516;2022-12-19T14:54:05;3.30;;;3.00;;
4529;SDS011;2277;51.626;7.516;2022-12-19T14:56:47;3.43;;;3.23;;
4529;SDS011;2277;51.626;7.516;2022-12-19T14:59:20;3.00;;;2.70;;
4529;SDS011;2277;51.626;7.516;2022-12-19T15:04:36;3.00;;;2.80;;
4529;SDS011;2277;51.626;7.516;2022-12-19T15:07:26;3.07;;;2.77;;
4529;SDS011;2277;51.626;7.516;2022-12-19T15:10:01;5.87;;;4.60;;
4529;SDS011;2277;51.626;7.516;2022-12-19T15:12:32;4.00;;;3.60;;
4529;SDS011;2277;51.626;7.516;2022-12-19T15:15:42;6.13;;;4.00;;
4529;SDS011;2277;51.626;7.516;2022-12-19T15:20:57;4.53;;;4.13;;
4529;SDS011;2277;51.626;7.516;2022-12-19T15:23:25;3.33;;;3.03;;
4529;SDS011;2277;51.626;7.516;2022-12-19T15:25:52;4.30;;;3.90;;
4529;SDS011;2277;51.626;7.516;2022-12-19T15:28:19;3.57;;;3.30;;
4529;SDS011;2277;51.626;7.516;2022-12-19T15:30:48;3.73;;;2.57;;
4529;SDS011;2277;51.626;7.516;2022-12-19T15:33:21;4.20;;;3.60;;
4529;SDS011;2277;51.626;7.516;2022-12-19T15:35:47;5.27;;;3.50;;
4529;SDS011;2277;51.626;7.516;2022-12-19T15:38:12;3.83;;;3.43;;
4529;SDS011;2277;51.626;7.516;2022-12-19T15:40:38;3.77;;;2.90;;
4529;SDS011;2277;51.626;7.516;2022-12-19T15:43:08;4.57;;;2.80;;
4529;SDS011;2277;51.626;7.516;2022-12-19T15:45:40;4.40;;;3.93;;
4529;SDS011;2277;51.626;7.516;2022-12-19T15:48:08;3.23;;;3.00;;
4529;SDS011;2277;51.626;7.516;2022-12-19T15:50:43;3.67;;;3.37;;
4529;SDS011;2277;51.626;7.516;2022-12-19T15:53:25;4.00;;;3.20;;
4529;SDS011;2277;51.626;7.516;2022-12-19T15:55:53;5.87;;;5.27;;
4529;SDS011;2277;51.626;7.516;2022-12-19T15:58:22;9.90;;;5.60;;
4529;SDS011;2277;51.626;7.516;2022-12-19T16:00:55;5.27;;;4.20;;
4529;SDS011;2277;51.626;7.516;2022-12-19T16:03:24;3.70;;;3.40;;
4529;SDS011;2277;51.626;7.516;2022-12-19T16:05:50;11.17;;;6.03;;
4529;SDS011;2277;51.626;7.516;2022-12-19T16:08:17;3.13;;;2.83;;
4529;SDS011;2277;51.626;7.516;2022-12-19T16:10:45;4.37;;;3.53;;
4529;SDS011;2277;51.626;7.516;2022-12-19T16:13:17;4.77;;;3.93;;
4529;SDS011;2277;51.626;7.516;2022-12-19T16:15:52;3.90;;;3.07;;
4529;SDS011;2277;51.626;7.516;2022-12-19T16:18:19;5.23;;;4.63;;
4529;SDS011;2277;51.626;7.516;2022-12-19T16:20:45;7.23;;;5.00;;
4529;SDS011;2277;51.626;7.516;2022-12-19T16:23:12;3.90;;;3.60;;
4529;SDS011;2277;51.626;7.516;2022-12-19T16:25:39;5.23;;;4.80;;
4529;SDS011;2277;51.626;7.516;2022-12-19T16:28:10;4.43;;;4.00;;
4529;SDS011;2277;51.626;7.516;2022-12-19T16:30:49;3.83;;;3.50;;
4529;SDS011;2277;51.626;7.516;2022-12-19T16:33:19;3.97;;;3.60;;
4529;SDS011;2277;51.626;7.516;2022-12-19T16:35:48;5.43;;;4.03;;
4529;SDS011;2277;51.626;7.516;2022-12-19T16:38:14;3.03;;;2.83;;
4529;SDS011;2277;51.626;7.516;2022-12-19T16:40:40;9.83;;;3.80;;
4529;SDS011;2277;51.626;7.516;2022-12-19T16:43:11;4.07;;;3.77;;
4529;SDS011;2277;51.626;7.516;2022-12-19T16:45:40;8.53;;;3.27;;
4529;SDS011;2277;51.626;7.516;2022-12-19T16:48:19;2.53;;;2.33;;
4529;SDS011;2277;51.626;7.516;2022-12-19T16:50:47;3.17;;;2.50;;
4529;SDS011;2277;51.626;7.516;2022-12-19T16:53:13;3.90;;;2.73;;
4529;SDS011;2277;51.626;7.516;2022-12-19T16:55:39;2.87;;;2.53;;
4529;SDS011;2277;51.626;7.516;2022-12-19T16:58:05;3.10;;;2.40;;
4529;SDS011;2277;51.626;7.516;2022-12-19T17:00:31;4.50;;;2.33;;
4529;SDS011;2277;51.626;7.516;2022-12-19T17:03:02;4.00;;;2.60;;
4529;SDS011;2277;51.626;7.516;2022-12-19T17:05:48;3.40;;;3.20;;
4529;SDS011;2277;51.626;7.516;2022-12-19T17:08:13;4.37;;;4.07;;
4529;SDS011;2277;51.626;7.516;2022-12-19T17:10:39;2.40;;;2.20;;
4529;SDS011;2277;51.626;7.516;2022-12-19T17:13:09;4.90;;;2.63;;
4529;SDS011;2277;51.626;7.516;2022-12-19T17:15:36;2.57;;;1.97;;
4529;SDS011;2277;51.626;7.516;2022-12-19T17:18:03;2.03;;;1.83;;
4529;SDS011;2277;51.626;7.516;2022-12-19T17:20:36;4.80;;;3.70;;